Details From KPIB - HATTIESBURG LAUREL RGNL
To KGLS - Scholes INTL at Galveston
Flight Number -
Tags decoded
Created
Modified
Stats Distance 322 nm / 597 km
Max Altitude 0 ft / 0 m
Waypoints 4
Social Downloads 0
Likes 0
Share VATSIM

Download

Looking for another format? Having issues loading an existing format? Contact us
Advertisement - Login to hide

Notes

Requested: KPIB LBY MHF HOBBY KGLS Unmatched points: HOBBY

Route

KPIB LBY MHF KGLS

ID Type Via Altitude Latitude Longitude Leg Dist Tot Dist Heading (true) Name
O KPIB APT - 0 ft / 0 m 31.46715˚ -89.33706˚ - 0 nm - HATTIESBURG LAUREL RGNL
LBY VOR - 0 ft / 0 m 31.41869˚ -89.33761˚ 2 nm 2 nm 181° / 181° EATON VORTAC
MHF VOR - 0 ft / 0 m 29.54633˚ -94.74750˚ 301 nm 304 nm 250° / 247° TRINITY VOR-DME
O KGLS APT - 0 ft / 0 m 29.26532˚ -94.86041˚ 17 nm 322 nm 199° / 199° Scholes INTL at Galveston

Altitude Profile

Advertisement - Login to hide

Weather


0- 5 10 15 20 25 30 35+ Temperature / ° C

Clouds and Precipitation
Forecast for 2017-12-14 00:00 UTC. Updated an hour ago

Ground ~20,000 ft ~40,000 ft Winds

KPIB

Details ICAO KPIB (PIB)
Name HATTIESBURG LAUREL RGNL
Region United States
Timezone America/Chicago (UTC-6.0)
Stats Elevation 297 ft / 91 m (AMSL)
Location 31.467146° -89.337058°
Runways 1
Magnetic Variation 1.473° W

METAR

KPIB 132211Z AUTO 20004KT 10SM FEW001 12/M01 A3002 RMK AO2

Decode

TAF

Not found

Departure Runways

ID Width Length Bearing (true) Bearing (mag) Surface Threshold Offset Overrun Length
18 150 ft / 46 m 6,523 ft / 1,988 m 179.94° 181.41° Asphalt 0 ft / 0 m 200 ft / 61 m
36 150 ft / 46 m 6,523 ft / 1,988 m 359.94° 1.41° Asphalt 0 ft / 0 m 0 ft / 0 m

KGLS

Details ICAO KGLS (GLS)
Name Scholes INTL at Galveston
Region United States
Timezone America/Chicago (UTC-6.0)
Stats Elevation 6 ft / 2 m (AMSL)
Location 29.265321° -94.860412°
Runways 2
Magnetic Variation 2.203° E

METAR

KGLS 132152Z 21006KT 10SM CLR 16/03 A3006 RMK AO2 SLP179 T01610028

Decode

TAF

TAF KGLS 131728Z 1318/1418 20008KT P6SM BKN300 FM140600 24006KT P6SM BKN300 FM141400 VRB05KT P6SM FEW040 OVC250

Decode

Destination Runways

ID Width Length Bearing (true) Bearing (mag) Surface Threshold Offset Overrun Length
13 151 ft / 46 m 6,008 ft / 1,831 m 140.26° 138.06° Asphalt 0 ft / 0 m 0 ft / 0 m
17 151 ft / 46 m 6,023 ft / 1,836 m 180.86° 178.66° Concrete 0 ft / 0 m 0 ft / 0 m
31 151 ft / 46 m 6,008 ft / 1,831 m 320.26° 318.06° Asphalt 0 ft / 0 m 0 ft / 0 m
35 151 ft / 46 m 6,023 ft / 1,836 m 0.86° 358.66° Concrete 0 ft / 0 m 0 ft / 0 m

Approach Navaids

Runway Type Ident Frequency Range Bearing (true) Bearing (mag) Slope Elevation
13 Localiser IGLS 111.70 MHz 18 nm / 33 km 140.26° 138.06° - 7 ft / 2 m (AMSL)
13 Glidescope IGLS 111.70 MHz 10 nm / 19 km 140.26° 138.06° 3.00° 5 ft / 2 m (AMSL)

Popular Alternatives